createdAt,value
2022-07-30T00:00:24.990Z,17.20
2022-07-30T00:01:59.126Z,17.20
2022-07-30T00:03:34.050Z,17.10
2022-07-30T00:05:08.769Z,17.10
2022-07-30T00:06:42.087Z,17.10
2022-07-30T00:08:15.688Z,17.10
2022-07-30T00:09:49.101Z,17.10
2022-07-30T00:11:27.491Z,17.10
2022-07-30T00:13:02.855Z,17.00
2022-07-30T00:14:37.957Z,17.00
2022-07-30T00:16:12.103Z,17.00
2022-07-30T00:17:46.731Z,17.00
2022-07-30T00:19:22.849Z,16.90
2022-07-30T00:20:56.436Z,16.90
2022-07-30T00:22:29.901Z,16.90
2022-07-30T00:24:04.184Z,16.90
2022-07-30T00:25:37.663Z,16.90
2022-07-30T00:27:11.014Z,16.80
2022-07-30T00:28:45.890Z,16.80
2022-07-30T00:30:19.337Z,16.80
2022-07-30T00:31:53.286Z,16.80
2022-07-30T00:33:26.669Z,16.70
2022-07-30T00:35:00.125Z,16.70
2022-07-30T00:36:33.727Z,16.70
2022-07-30T00:38:07.154Z,16.60
2022-07-30T00:39:40.581Z,16.60
2022-07-30T00:41:15.666Z,16.60
2022-07-30T00:42:50.402Z,16.50
2022-07-30T00:44:25.190Z,16.50
2022-07-30T00:45:58.933Z,16.50
2022-07-30T00:47:33.155Z,16.40
2022-07-30T00:49:06.838Z,16.40
2022-07-30T00:50:42.378Z,16.40
2022-07-30T00:52:18.934Z,16.40
2022-07-30T00:53:52.408Z,16.30
2022-07-30T00:55:25.737Z,16.30
2022-07-30T00:56:59.547Z,16.20
2022-07-30T00:58:33.693Z,16.20
2022-07-30T01:00:22.301Z,16.20
2022-07-30T01:02:05.247Z,16.10
2022-07-30T01:03:42.918Z,16.20
2022-07-30T01:05:20.692Z,16.10
2022-07-30T01:06:54.732Z,16.00
2022-07-30T01:08:28.478Z,16.00
2022-07-30T01:10:02.438Z,15.90
2022-07-30T01:11:39.907Z,15.90
2022-07-30T01:13:15.186Z,15.90
2022-07-30T01:14:50.230Z,15.80
2022-07-30T01:16:27.059Z,15.80
2022-07-30T01:18:06.006Z,15.80
2022-07-30T01:19:49.871Z,15.70
2022-07-30T01:21:42.573Z,15.70
2022-07-30T01:23:27.185Z,15.70
2022-07-30T01:25:13.557Z,15.70
2022-07-30T01:26:50.506Z,15.60
2022-07-30T01:28:30.101Z,15.60
2022-07-30T01:30:06.284Z,15.50
2022-07-30T01:31:40.750Z,15.50
2022-07-30T01:33:17.997Z,15.50
2022-07-30T01:34:52.821Z,15.50
2022-07-30T01:36:27.785Z,15.40
2022-07-30T01:38:05.077Z,15.40
2022-07-30T01:39:40.422Z,15.30
2022-07-30T01:41:16.386Z,15.30
2022-07-30T01:42:54.871Z,15.30
2022-07-30T01:44:28.685Z,15.30
2022-07-30T01:46:03.914Z,15.20
2022-07-30T01:47:43.253Z,15.20
2022-07-30T01:49:19.422Z,15.20
2022-07-30T01:50:59.081Z,15.10
2022-07-30T01:52:35.795Z,15.10
2022-07-30T01:54:12.182Z,15.00
2022-07-30T01:55:47.056Z,15.00
2022-07-30T01:57:23.034Z,15.00
2022-07-30T01:59:00.670Z,15.00
2022-07-30T02:00:41.537Z,14.90
2022-07-30T02:02:19.310Z,14.90
2022-07-30T02:03:55.645Z,14.80
2022-07-30T02:05:35.238Z,14.80
2022-07-30T02:07:17.679Z,14.80
2022-07-30T02:08:55.955Z,14.80
2022-07-30T02:10:37.540Z,14.70
2022-07-30T02:12:28.788Z,14.70
2022-07-30T02:14:15.321Z,14.70
2022-07-30T02:15:57.893Z,14.70
2022-07-30T02:17:42.967Z,14.60
2022-07-30T02:19:21.688Z,14.60
2022-07-30T02:21:07.276Z,14.50
2022-07-30T02:22:47.189Z,14.50
2022-07-30T02:24:27.333Z,14.50
2022-07-30T02:26:01.690Z,14.50
2022-07-30T02:27:39.865Z,14.40
2022-07-30T02:29:18.325Z,14.40
2022-07-30T02:30:58.925Z,14.40
2022-07-30T02:32:38.567Z,14.40
2022-07-30T02:34:15.238Z,14.30
2022-07-30T02:35:50.659Z,14.30
2022-07-30T02:37:43.965Z,14.30
2022-07-30T02:39:20.158Z,14.30
2022-07-30T02:40:56.515Z,14.20
2022-07-30T02:42:30.841Z,14.20
2022-07-30T02:44:06.200Z,14.20
2022-07-30T02:45:43.181Z,14.10
2022-07-30T02:47:17.717Z,14.10
2022-07-30T02:49:03.034Z,14.10
2022-07-30T02:50:38.652Z,14.10
2022-07-30T02:52:15.562Z,14.10
2022-07-30T02:53:52.710Z,14.00
2022-07-30T02:55:32.222Z,14.00
2022-07-30T02:57:09.929Z,14.00
2022-07-30T02:58:45.288Z,14.00
2022-07-30T03:00:19.762Z,13.90
2022-07-30T03:01:56.862Z,13.90
2022-07-30T03:03:32.213Z,13.90
2022-07-30T03:05:09.108Z,13.90
2022-07-30T03:06:45.240Z,13.90
2022-07-30T03:08:19.969Z,13.80
2022-07-30T03:09:57.453Z,13.80
2022-07-30T03:11:35.279Z,13.80
2022-07-30T03:13:11.667Z,13.80
2022-07-30T03:14:46.414Z,13.80
2022-07-30T03:16:24.326Z,13.70
2022-07-30T03:18:02.506Z,13.70
2022-07-30T03:19:40.889Z,13.70
2022-07-30T03:21:17.723Z,13.70
2022-07-30T03:22:54.960Z,13.60
2022-07-30T03:24:31.079Z,13.60
2022-07-30T03:26:10.001Z,13.60
2022-07-30T03:27:44.956Z,13.60
2022-07-30T03:29:21.676Z,13.50
2022-07-30T03:30:56.053Z,13.50
2022-07-30T03:32:30.538Z,13.50
2022-07-30T03:34:07.946Z,13.50
2022-07-30T03:35:44.679Z,13.40
2022-07-30T03:37:18.899Z,13.40
2022-07-30T03:38:53.119Z,13.40
2022-07-30T03:40:27.612Z,13.30
2022-07-30T03:42:02.653Z,13.30
2022-07-30T03:43:39.011Z,13.30
2022-07-30T03:45:14.412Z,13.30
2022-07-30T03:46:50.861Z,13.30
2022-07-30T03:48:26.273Z,13.20
2022-07-30T03:50:04.028Z,13.20
2022-07-30T03:51:39.839Z,13.20
2022-07-30T03:53:13.818Z,13.10
2022-07-30T03:55:10.387Z,13.10
2022-07-30T03:56:59.445Z,13.10
2022-07-30T03:58:42.006Z,13.10
2022-07-30T04:00:18.166Z,13.00
2022-07-30T04:02:07.284Z,13.10
2022-07-30T04:04:06.963Z,13.00
2022-07-30T04:05:41.301Z,13.00
2022-07-30T04:07:18.384Z,12.90
2022-07-30T04:08:51.788Z,12.90
2022-07-30T04:10:28.381Z,12.90
2022-07-30T04:12:18.923Z,12.90
2022-07-30T04:13:52.539Z,12.80
2022-07-30T04:16:40.509Z,12.80
2022-07-30T04:17:32.945Z,12.80
2022-07-30T04:19:20.810Z,12.80
2022-07-30T04:20:56.247Z,12.70
2022-07-30T04:22:34.120Z,12.70
2022-07-30T04:24:10.771Z,12.70
2022-07-30T04:25:45.832Z,12.70
2022-07-30T04:27:21.935Z,12.70
2022-07-30T04:28:56.689Z,12.60
2022-07-30T04:30:30.132Z,12.60
2022-07-30T04:32:03.946Z,12.60
2022-07-30T04:33:51.672Z,12.60
2022-07-30T04:35:48.587Z,12.60
2022-07-30T04:37:32.632Z,12.50
2022-07-30T04:39:06.362Z,12.50
2022-07-30T04:40:40.085Z,12.50
2022-07-30T04:42:14.249Z,12.50
2022-07-30T04:43:51.184Z,12.50
2022-07-30T04:45:24.895Z,12.50
2022-07-30T04:47:03.801Z,12.40
2022-07-30T04:48:43.604Z,12.40
2022-07-30T04:50:28.707Z,12.40
2022-07-30T04:52:05.027Z,12.40
2022-07-30T04:53:39.179Z,12.40
2022-07-30T04:55:16.235Z,12.40
2022-07-30T04:56:54.219Z,12.40
2022-07-30T04:58:30.953Z,12.30
2022-07-30T05:00:08.835Z,12.30
2022-07-30T05:01:49.511Z,12.30
2022-07-30T05:03:23.558Z,12.30
2022-07-30T05:05:02.472Z,12.30
2022-07-30T05:06:39.596Z,12.30
2022-07-30T05:08:13.852Z,12.30
2022-07-30T05:09:48.092Z,12.30
2022-07-30T05:11:22.157Z,12.30
2022-07-30T05:12:54.646Z,12.30
2022-07-30T05:14:29.942Z,12.30
2022-07-30T05:16:03.610Z,12.30
2022-07-30T05:17:38.717Z,12.30
2022-07-30T05:19:15.428Z,12.30
2022-07-30T05:20:48.961Z,12.30
2022-07-30T05:22:30.065Z,12.30
2022-07-30T05:24:03.494Z,12.30
2022-07-30T05:25:43.667Z,12.30
2022-07-30T05:27:23.458Z,12.30
2022-07-30T05:28:57.422Z,12.30
2022-07-30T05:30:38.959Z,12.30
2022-07-30T05:32:18.441Z,12.40
2022-07-30T05:33:53.299Z,12.40
2022-07-30T05:35:32.007Z,12.40
2022-07-30T05:37:06.787Z,12.40
2022-07-30T05:38:45.307Z,12.50
2022-07-30T05:40:49.111Z,12.40
2022-07-30T05:42:42.739Z,12.40
2022-07-30T05:44:19.561Z,12.50
2022-07-30T05:45:55.785Z,12.50
2022-07-30T05:47:29.315Z,12.50
2022-07-30T05:49:01.761Z,12.60
2022-07-30T05:50:35.786Z,12.60
2022-07-30T05:52:09.726Z,12.60
2022-07-30T05:53:43.278Z,12.70
2022-07-30T05:55:30.783Z,12.70
2022-07-30T05:57:29.819Z,12.70
2022-07-30T05:59:05.307Z,12.80
2022-07-30T06:00:58.746Z,12.80
2022-07-30T06:02:35.180Z,12.90
2022-07-30T06:04:28.639Z,12.90
2022-07-30T06:06:09.398Z,13.00
2022-07-30T06:07:42.831Z,13.00
2022-07-30T06:09:16.746Z,13.10
2022-07-30T06:10:57.509Z,13.10
2022-07-30T06:12:32.495Z,13.20
2022-07-30T06:14:05.908Z,13.30
2022-07-30T06:15:39.338Z,13.30
2022-07-30T06:17:13.144Z,13.40
2022-07-30T06:19:04.645Z,13.50
2022-07-30T06:20:51.488Z,13.50
2022-07-30T06:22:33.972Z,13.60
2022-07-30T06:24:13.639Z,13.70
2022-07-30T06:25:52.165Z,13.70
2022-07-30T06:27:31.258Z,13.80
2022-07-30T06:29:07.012Z,13.90
2022-07-30T06:30:40.946Z,13.90
2022-07-30T06:32:15.232Z,14.00
2022-07-30T06:33:48.811Z,14.10
2022-07-30T06:35:22.837Z,14.10
2022-07-30T06:36:56.479Z,14.20
2022-07-30T06:38:31.420Z,14.30
2022-07-30T06:40:12.377Z,14.30
2022-07-30T06:42:06.315Z,14.40
2022-07-30T06:44:01.087Z,14.50
2022-07-30T06:45:54.404Z,14.60
2022-07-30T06:47:31.331Z,14.70
2022-07-30T06:49:06.553Z,14.80
2022-07-30T06:50:41.793Z,14.80
2022-07-30T06:52:18.741Z,14.90
2022-07-30T06:53:56.857Z,15.00
2022-07-30T06:55:51.380Z,15.00
2022-07-30T06:57:34.635Z,15.20
2022-07-30T06:59:14.721Z,15.30
2022-07-30T07:01:10.883Z,15.30
2022-07-30T07:02:44.364Z,15.40
2022-07-30T07:04:20.176Z,15.50
2022-07-30T07:05:53.678Z,15.60
2022-07-30T07:07:41.175Z,15.70
2022-07-30T07:09:17.800Z,15.80
2022-07-30T07:10:59.064Z,15.90
2022-07-30T07:12:38.002Z,16.00
2022-07-30T07:14:12.388Z,16.10
2022-07-30T07:15:46.145Z,16.10
2022-07-30T07:17:25.509Z,16.20
2022-07-30T07:20:01.073Z,16.30
2022-07-30T07:21:12.589Z,16.40
2022-07-30T07:22:46.305Z,16.60
2022-07-30T07:24:20.635Z,16.70
2022-07-30T07:26:02.655Z,16.70
2022-07-30T07:27:38.400Z,16.80
2022-07-30T07:29:12.274Z,16.90
2022-07-30T07:30:45.981Z,17.00
2022-07-30T07:32:20.560Z,17.10
2022-07-30T07:33:55.388Z,17.20
2022-07-30T07:35:29.038Z,17.30
2022-07-30T07:37:02.827Z,17.40
2022-07-30T07:38:36.628Z,17.50
2022-07-30T07:40:11.360Z,17.60
2022-07-30T07:41:49.816Z,17.70
2022-07-30T07:43:28.852Z,17.80
2022-07-30T07:45:05.542Z,17.90
2022-07-30T07:46:45.223Z,18.00
2022-07-30T07:48:18.338Z,18.10
2022-07-30T07:50:01.119Z,18.20
2022-07-30T07:51:47.309Z,18.30
2022-07-30T07:53:24.527Z,18.40
2022-07-30T07:54:58.258Z,18.50
2022-07-30T07:56:33.267Z,18.60
2022-07-30T07:58:21.419Z,18.70
2022-07-30T07:59:59.441Z,18.80
2022-07-30T08:01:36.846Z,18.90
2022-07-30T08:03:30.518Z,19.00
2022-07-30T08:05:08.007Z,19.10
2022-07-30T08:07:00.560Z,19.20
2022-07-30T08:08:55.339Z,19.30
2022-07-30T08:10:48.892Z,19.40
2022-07-30T08:12:42.589Z,19.60
2022-07-30T08:14:37.337Z,19.70
2022-07-30T08:16:30.685Z,19.80
2022-07-30T08:18:24.139Z,19.90
2022-07-30T08:20:15.524Z,20.00
2022-07-30T08:21:49.519Z,20.10
2022-07-30T08:23:25.551Z,20.30
2022-07-30T08:25:01.082Z,20.30
2022-07-30T08:26:37.604Z,20.40
2022-07-30T08:28:20.164Z,20.50
2022-07-30T08:30:10.520Z,20.60
2022-07-30T08:31:44.712Z,20.70
2022-07-30T08:33:19.796Z,20.80
2022-07-30T08:34:53.627Z,20.80
2022-07-30T08:36:29.032Z,20.90
2022-07-30T08:38:02.536Z,20.90
2022-07-30T08:39:35.999Z,21.00
2022-07-30T08:41:10.671Z,21.10
2022-07-30T08:42:44.721Z,21.20
2022-07-30T08:44:21.704Z,21.30
2022-07-30T08:45:59.919Z,21.40
2022-07-30T08:47:47.760Z,21.50
2022-07-30T08:49:28.652Z,21.50
2022-07-30T08:51:03.292Z,21.60
2022-07-30T08:52:58.107Z,21.60
2022-07-30T08:54:31.708Z,21.70
2022-07-30T08:56:06.753Z,21.80
2022-07-30T08:57:40.371Z,21.80
2022-07-30T08:59:15.416Z,21.80
2022-07-30T09:00:51.243Z,21.80
2022-07-30T09:02:27.744Z,21.80
2022-07-30T09:04:08.235Z,21.90
2022-07-30T09:05:41.723Z,21.90
2022-07-30T09:07:15.327Z,22.00
2022-07-30T09:08:48.978Z,21.90
2022-07-30T09:10:25.727Z,22.00
2022-07-30T09:11:59.039Z,22.00
2022-07-30T09:13:37.697Z,22.00
2022-07-30T09:15:15.619Z,22.00
2022-07-30T09:16:58.853Z,22.00
2022-07-30T09:18:39.036Z,22.00
2022-07-30T09:20:12.197Z,22.00
2022-07-30T09:21:58.116Z,22.00
2022-07-30T09:24:00.116Z,22.10
2022-07-30T09:25:54.247Z,22.10
2022-07-30T09:27:50.739Z,22.10
2022-07-30T09:29:45.003Z,22.10
2022-07-30T09:31:55.686Z,22.10
2022-07-30T09:33:50.421Z,22.10
2022-07-30T09:35:44.736Z,22.10
2022-07-30T09:37:32.009Z,22.20
2022-07-30T09:39:33.694Z,22.20
2022-07-30T09:41:39.311Z,22.20
2022-07-30T09:43:17.764Z,22.30
2022-07-30T09:45:07.483Z,22.20
2022-07-30T09:46:47.305Z,22.20
2022-07-30T09:48:28.030Z,22.20
2022-07-30T09:50:08.246Z,22.20
2022-07-30T09:51:56.411Z,22.20
2022-07-30T09:53:32.614Z,22.20
2022-07-30T09:55:09.596Z,22.30
2022-07-30T09:56:53.781Z,22.30
2022-07-30T09:58:40.604Z,22.30
2022-07-30T10:00:24.449Z,22.40
2022-07-30T10:02:12.321Z,22.50
2022-07-30T10:04:26.013Z,22.50
2022-07-30T10:06:08.904Z,22.50
2022-07-30T10:07:53.289Z,22.60
2022-07-30T10:09:32.087Z,22.60
2022-07-30T10:11:08.676Z,22.60
2022-07-30T10:12:44.694Z,22.60
2022-07-30T10:14:30.821Z,22.70
2022-07-30T10:16:07.308Z,22.70
2022-07-30T10:17:42.315Z,22.70
2022-07-30T10:19:40.482Z,22.80
2022-07-30T10:21:36.526Z,22.80
2022-07-30T10:23:32.728Z,22.80
2022-07-30T10:25:28.391Z,22.80
2022-07-30T10:27:24.822Z,22.90
2022-07-30T10:29:12.977Z,22.80
2022-07-30T10:30:51.704Z,22.80
2022-07-30T10:32:30.836Z,22.90
2022-07-30T10:34:05.773Z,22.90
2022-07-30T10:35:42.640Z,22.90
2022-07-30T10:37:17.676Z,22.90
2022-07-30T10:38:54.165Z,23.00
2022-07-30T10:40:34.867Z,23.00
2022-07-30T10:42:38.312Z,23.00
2022-07-30T10:44:51.902Z,23.00
2022-07-30T10:46:45.609Z,23.00
2022-07-30T10:48:21.084Z,23.10
2022-07-30T10:50:12.018Z,23.10
2022-07-30T10:51:49.962Z,23.10
2022-07-30T10:53:39.059Z,23.10
2022-07-30T10:55:16.159Z,23.10
2022-07-30T10:57:06.201Z,23.20
2022-07-30T10:59:07.867Z,23.20
2022-07-30T11:01:00.245Z,23.30
2022-07-30T11:02:35.996Z,23.40
2022-07-30T11:04:20.567Z,23.40
2022-07-30T11:06:27.840Z,23.50
2022-07-30T11:08:42.552Z,23.60
2022-07-30T11:10:39.719Z,23.70
2022-07-30T11:12:15.684Z,23.80
2022-07-30T11:13:55.156Z,23.80
2022-07-30T11:15:57.477Z,23.90
2022-07-30T11:18:12.117Z,24.00
2022-07-30T11:20:11.762Z,24.10
2022-07-30T11:21:47.795Z,24.20
2022-07-30T11:23:42.833Z,24.30
2022-07-30T11:25:51.323Z,24.30
2022-07-30T11:27:41.295Z,24.40
2022-07-30T11:29:51.355Z,24.50
2022-07-30T11:31:37.156Z,24.50
2022-07-30T11:33:33.009Z,24.60
2022-07-30T11:35:19.510Z,24.70
2022-07-30T11:37:18.313Z,24.70
2022-07-30T11:39:06.732Z,24.80
2022-07-30T11:41:10.493Z,24.80
2022-07-30T11:42:44.904Z,24.90
2022-07-30T11:44:31.319Z,25.00
2022-07-30T11:46:10.770Z,25.00
2022-07-30T11:47:43.905Z,25.10
2022-07-30T11:49:18.226Z,25.10
2022-07-30T11:50:51.781Z,25.20
2022-07-30T11:52:25.617Z,25.20
2022-07-30T11:54:07.348Z,25.20
2022-07-30T11:55:43.622Z,25.30
2022-07-30T11:57:17.076Z,25.30
2022-07-30T11:58:50.709Z,25.40
2022-07-30T12:00:23.980Z,25.40
2022-07-30T12:02:00.146Z,25.40
2022-07-30T12:03:34.371Z,25.50
2022-07-30T12:05:09.069Z,25.50
2022-07-30T12:06:45.951Z,25.50
2022-07-30T12:08:35.297Z,25.60
2022-07-30T12:10:26.936Z,25.60
2022-07-30T12:12:02.232Z,25.60
2022-07-30T12:13:44.381Z,25.60
2022-07-30T12:15:40.840Z,25.70
2022-07-30T12:17:15.287Z,25.80
2022-07-30T12:18:49.336Z,25.80
2022-07-30T12:20:21.739Z,25.80
2022-07-30T12:22:00.836Z,25.90
2022-07-30T12:23:35.068Z,25.90
2022-07-30T12:25:10.937Z,26.00
2022-07-30T12:26:46.092Z,26.00
2022-07-30T12:28:24.526Z,26.00
2022-07-30T12:29:58.004Z,26.00
2022-07-30T12:31:33.543Z,26.10
2022-07-30T12:33:07.561Z,26.10
2022-07-30T12:34:40.992Z,26.10
2022-07-30T12:36:27.848Z,26.10
2022-07-30T12:38:06.039Z,26.20
2022-07-30T12:39:40.505Z,26.30
2022-07-30T12:41:14.040Z,26.30
2022-07-30T12:42:53.635Z,26.30
2022-07-30T12:44:40.684Z,26.40
2022-07-30T12:46:19.283Z,26.40
2022-07-30T12:47:53.235Z,26.40
2022-07-30T12:49:36.615Z,26.40
2022-07-30T12:51:20.080Z,26.40
2022-07-30T12:52:56.896Z,26.50
2022-07-30T12:54:30.010Z,26.50
2022-07-30T12:56:14.042Z,26.50
2022-07-30T12:58:07.243Z,26.50
2022-07-30T12:59:42.344Z,26.50
2022-07-30T13:01:16.828Z,26.50
2022-07-30T13:02:50.757Z,26.50
2022-07-30T13:04:26.351Z,26.50
2022-07-30T13:06:00.385Z,26.50
2022-07-30T13:07:34.075Z,26.50
2022-07-30T13:09:08.547Z,26.50
2022-07-30T13:10:59.171Z,26.60
2022-07-30T13:12:33.349Z,26.60
2022-07-30T13:14:08.128Z,26.60
2022-07-30T13:15:53.929Z,26.60
2022-07-30T13:17:27.749Z,26.60
2022-07-30T13:19:01.534Z,26.60
2022-07-30T13:20:35.056Z,26.60
2022-07-30T13:22:09.907Z,26.60
2022-07-30T13:23:43.709Z,26.70
2022-07-30T13:25:18.132Z,26.70
2022-07-30T13:26:51.755Z,26.70
2022-07-30T13:28:24.903Z,26.70
2022-07-30T13:29:59.621Z,26.80
2022-07-30T13:31:42.437Z,26.70
2022-07-30T13:33:17.258Z,26.80
2022-07-30T13:34:50.624Z,26.80
2022-07-30T13:36:24.811Z,26.90
2022-07-30T13:37:59.668Z,26.80
2022-07-30T13:39:32.991Z,26.90
2022-07-30T13:41:07.839Z,26.90
2022-07-30T13:42:41.271Z,26.90
2022-07-30T13:44:14.721Z,26.90
2022-07-30T13:45:49.768Z,26.90
2022-07-30T13:47:23.750Z,26.90
2022-07-30T13:48:57.138Z,26.90
2022-07-30T13:50:31.368Z,26.90
2022-07-30T13:52:05.984Z,26.90
2022-07-30T13:53:39.480Z,26.90
2022-07-30T13:55:13.163Z,26.90
2022-07-30T13:56:46.526Z,26.90
2022-07-30T13:58:20.723Z,26.80
2022-07-30T13:59:54.014Z,26.80
2022-07-30T14:01:29.124Z,26.80
2022-07-30T14:03:04.127Z,26.80
2022-07-30T14:04:38.796Z,26.80
2022-07-30T14:06:12.148Z,26.80
2022-07-30T14:07:45.467Z,26.80
2022-07-30T14:09:18.791Z,26.70
2022-07-30T14:10:52.327Z,26.80
2022-07-30T14:12:27.393Z,26.80
2022-07-30T14:14:00.749Z,26.80
2022-07-30T14:15:35.583Z,26.80
2022-07-30T14:17:10.445Z,26.70
2022-07-30T14:18:43.751Z,26.80
2022-07-30T14:20:17.532Z,26.70
2022-07-30T14:21:52.695Z,26.80
2022-07-30T14:23:26.280Z,26.80
2022-07-30T14:25:00.140Z,26.80
2022-07-30T14:26:36.659Z,26.80
2022-07-30T14:28:10.140Z,26.80
2022-07-30T14:29:43.785Z,26.80
2022-07-30T14:31:17.170Z,26.90
2022-07-30T14:32:58.257Z,26.90
2022-07-30T14:34:34.043Z,27.00
2022-07-30T14:36:10.104Z,27.00
2022-07-30T14:37:43.546Z,27.00
2022-07-30T14:39:17.425Z,27.10
2022-07-30T14:40:50.852Z,27.00
2022-07-30T14:42:25.296Z,27.10
2022-07-30T14:43:58.991Z,27.10
2022-07-30T14:45:33.109Z,27.20
2022-07-30T14:47:07.671Z,27.20
2022-07-30T14:48:42.900Z,27.20
2022-07-30T14:50:16.360Z,27.20
2022-07-30T14:51:50.224Z,27.30
2022-07-30T14:53:23.648Z,27.30
2022-07-30T14:54:57.216Z,27.30
2022-07-30T14:56:30.826Z,27.30
2022-07-30T14:58:04.160Z,27.30
2022-07-30T14:59:37.966Z,27.30
2022-07-30T15:01:15.828Z,27.30
2022-07-30T15:02:50.564Z,27.40
2022-07-30T15:04:25.659Z,27.40
2022-07-30T15:05:59.040Z,27.40
2022-07-30T15:07:34.677Z,27.40
2022-07-30T15:09:09.617Z,27.50
2022-07-30T15:10:43.278Z,27.50
2022-07-30T15:12:23.547Z,27.50
2022-07-30T15:13:59.896Z,27.50
2022-07-30T15:15:38.195Z,27.60
2022-07-30T15:17:11.905Z,27.60
2022-07-30T15:18:45.319Z,27.60
2022-07-30T15:20:20.791Z,27.60
2022-07-30T15:21:54.565Z,27.60
2022-07-30T15:23:27.997Z,27.70
2022-07-30T15:25:01.418Z,27.70
2022-07-30T15:26:35.131Z,27.60
2022-07-30T15:28:09.339Z,27.70
2022-07-30T15:29:42.755Z,27.70
2022-07-30T15:31:16.187Z,27.70
2022-07-30T15:32:49.482Z,27.70
2022-07-30T15:34:23.124Z,27.70
2022-07-30T15:35:57.990Z,27.70
2022-07-30T15:37:31.708Z,27.70
2022-07-30T15:39:04.303Z,27.80
2022-07-30T15:40:37.776Z,27.80
2022-07-30T15:42:13.859Z,27.80
2022-07-30T15:43:47.323Z,27.80
2022-07-30T15:45:22.195Z,27.90
2022-07-30T15:46:55.973Z,27.90
2022-07-30T15:48:29.455Z,27.90
2022-07-30T15:50:03.789Z,27.90
2022-07-30T15:51:38.047Z,27.90
2022-07-30T15:53:17.280Z,28.00
2022-07-30T15:54:51.459Z,28.00
2022-07-30T15:56:33.247Z,28.00
2022-07-30T15:58:07.604Z,28.00
2022-07-30T15:59:40.968Z,27.90
2022-07-30T16:01:14.642Z,28.00
2022-07-30T16:02:48.178Z,27.90
2022-07-30T16:04:21.615Z,27.90
2022-07-30T16:06:05.327Z,27.90
2022-07-30T16:07:40.072Z,27.90
2022-07-30T16:09:13.639Z,27.90
2022-07-30T16:10:47.383Z,27.90
2022-07-30T16:12:20.901Z,27.80
2022-07-30T16:13:54.360Z,27.80
2022-07-30T16:15:28.699Z,27.70
2022-07-30T16:17:02.834Z,27.70
2022-07-30T16:18:36.256Z,27.70
2022-07-30T16:20:25.657Z,27.70
2022-07-30T16:21:59.366Z,27.70
2022-07-30T16:23:36.613Z,27.60
2022-07-30T16:25:11.401Z,27.60
2022-07-30T16:26:45.129Z,27.60
2022-07-30T16:28:18.555Z,27.50
2022-07-30T16:29:52.220Z,27.50
2022-07-30T16:31:25.608Z,27.40
2022-07-30T16:32:58.942Z,27.30
2022-07-30T16:34:33.474Z,27.20
2022-07-30T16:36:08.579Z,27.10
2022-07-30T16:37:42.099Z,27.10
2022-07-30T16:39:17.555Z,27.00
2022-07-30T16:40:51.047Z,27.00
2022-07-30T16:42:24.620Z,26.90
2022-07-30T16:43:58.250Z,26.80
2022-07-30T16:45:31.884Z,26.80
2022-07-30T16:47:05.560Z,26.70
2022-07-30T16:48:39.055Z,26.60
2022-07-30T16:50:12.625Z,26.50
2022-07-30T16:51:46.348Z,26.40
2022-07-30T16:53:19.856Z,26.30
2022-07-30T16:54:54.562Z,26.20
2022-07-30T16:56:28.123Z,26.10
2022-07-30T16:58:01.867Z,26.00
2022-07-30T16:59:35.707Z,25.90
2022-07-30T17:01:09.270Z,25.80
2022-07-30T17:02:42.827Z,25.70
2022-07-30T17:04:16.643Z,25.60
2022-07-30T17:05:50.221Z,25.60
2022-07-30T17:07:24.275Z,25.50
2022-07-30T17:08:57.755Z,25.40
2022-07-30T17:10:32.411Z,25.30
2022-07-30T17:12:09.622Z,25.30
2022-07-30T17:13:46.139Z,25.20
2022-07-30T17:15:20.131Z,25.10
2022-07-30T17:17:05.513Z,25.10
2022-07-30T17:18:38.998Z,25.10
2022-07-30T17:20:14.543Z,25.00
2022-07-30T17:21:51.781Z,25.00
2022-07-30T17:23:25.381Z,24.90
2022-07-30T17:24:59.260Z,24.90
2022-07-30T17:26:35.341Z,24.90
2022-07-30T17:28:08.803Z,24.80
2022-07-30T17:29:50.189Z,24.80
2022-07-30T17:31:24.347Z,24.70
2022-07-30T17:32:58.242Z,24.70
2022-07-30T17:34:32.369Z,24.70
2022-07-30T17:36:08.724Z,24.60
2022-07-30T17:37:42.745Z,24.60
2022-07-30T17:40:06.058Z,24.50
2022-07-30T17:41:13.544Z,24.50
2022-07-30T17:42:48.672Z,24.50
2022-07-30T17:44:22.163Z,24.50
2022-07-30T17:45:55.707Z,24.40
2022-07-30T17:47:28.652Z,24.40
2022-07-30T17:49:02.799Z,24.40
2022-07-30T17:50:36.851Z,24.30
2022-07-30T17:52:10.424Z,24.30
2022-07-30T17:53:43.920Z,24.20
2022-07-30T17:55:17.263Z,24.20
2022-07-30T17:56:50.763Z,24.10
2022-07-30T17:58:26.022Z,24.10
2022-07-30T17:59:59.411Z,24.10
2022-07-30T18:01:50.582Z,24.00
2022-07-30T18:03:25.065Z,24.00
2022-07-30T18:04:58.480Z,24.00
2022-07-30T18:06:31.920Z,24.00
2022-07-30T18:08:06.372Z,23.90
2022-07-30T18:09:40.106Z,23.90
2022-07-30T18:11:14.039Z,23.90
2022-07-30T18:12:48.931Z,23.80
2022-07-30T18:14:24.128Z,23.80
2022-07-30T18:15:58.096Z,23.80
2022-07-30T18:17:32.900Z,23.80
2022-07-30T18:19:06.330Z,23.80
2022-07-30T18:20:48.058Z,23.80
2022-07-30T18:22:29.077Z,23.80
2022-07-30T18:24:03.361Z,23.70
2022-07-30T18:25:51.850Z,23.70
2022-07-30T18:27:27.304Z,23.70
2022-07-30T18:29:00.655Z,23.70
2022-07-30T18:30:34.572Z,23.60
2022-07-30T18:32:09.007Z,23.60
2022-07-30T18:33:44.153Z,23.60
2022-07-30T18:35:18.463Z,23.60
2022-07-30T18:36:53.061Z,23.50
2022-07-30T18:38:26.665Z,23.50
2022-07-30T18:40:00.158Z,23.50
2022-07-30T18:41:37.335Z,23.50
2022-07-30T18:43:11.213Z,23.40
2022-07-30T18:44:44.690Z,23.40
2022-07-30T18:46:18.732Z,23.40
2022-07-30T18:47:52.591Z,23.30
2022-07-30T18:49:37.233Z,23.30
2022-07-30T18:51:14.033Z,23.30
2022-07-30T18:52:49.319Z,23.30
2022-07-30T18:54:22.875Z,23.20
2022-07-30T18:55:56.297Z,23.20
2022-07-30T18:57:29.767Z,23.20
2022-07-30T18:59:03.507Z,23.10
2022-07-30T19:00:37.403Z,23.10
2022-07-30T19:02:11.433Z,23.10
2022-07-30T19:03:45.046Z,23.00
2022-07-30T19:05:20.084Z,23.00
2022-07-30T19:06:54.688Z,22.90
2022-07-30T19:08:28.561Z,22.90
2022-07-30T19:10:02.334Z,22.90
2022-07-30T19:11:36.011Z,22.80
2022-07-30T19:13:11.868Z,22.80
2022-07-30T19:14:45.537Z,22.80
2022-07-30T19:16:20.518Z,22.70
2022-07-30T19:17:54.183Z,22.70
2022-07-30T19:19:27.698Z,22.60
2022-07-30T19:21:04.032Z,22.60
2022-07-30T19:22:37.488Z,22.60
2022-07-30T19:24:12.389Z,22.60
2022-07-30T19:25:46.047Z,22.50
2022-07-30T19:27:19.784Z,22.50
2022-07-30T19:28:53.399Z,22.40
2022-07-30T19:30:26.755Z,22.40
2022-07-30T19:32:00.953Z,22.30
2022-07-30T19:33:34.755Z,22.30
2022-07-30T19:35:13.517Z,22.30
2022-07-30T19:36:49.751Z,22.20
2022-07-30T19:38:23.913Z,22.20
2022-07-30T19:40:05.297Z,22.10
2022-07-30T19:41:40.998Z,22.10
2022-07-30T19:43:14.528Z,22.10
2022-07-30T19:44:48.338Z,22.10
2022-07-30T19:46:22.023Z,22.00
2022-07-30T19:47:57.980Z,22.00
2022-07-30T19:49:34.638Z,22.00
2022-07-30T19:51:15.685Z,21.90
2022-07-30T19:52:55.641Z,21.90
2022-07-30T19:54:29.288Z,21.90
2022-07-30T19:56:08.136Z,21.90
2022-07-30T19:57:53.112Z,21.80
2022-07-30T19:59:46.198Z,21.80
2022-07-30T20:01:40.609Z,21.70
2022-07-30T20:03:15.479Z,21.70
2022-07-30T20:04:49.054Z,21.60
2022-07-30T20:06:22.803Z,21.60
2022-07-30T20:07:58.188Z,21.60
2022-07-30T20:09:31.702Z,21.60
2022-07-30T20:11:08.235Z,21.60
2022-07-30T20:12:49.074Z,21.50
2022-07-30T20:14:24.177Z,21.50
2022-07-30T20:15:57.868Z,21.50
2022-07-30T20:17:31.307Z,21.50
2022-07-30T20:19:08.411Z,21.50
2022-07-30T20:20:41.895Z,21.40
2022-07-30T20:22:15.497Z,21.40
2022-07-30T20:23:52.542Z,21.40
2022-07-30T20:25:26.210Z,21.40
2022-07-30T20:27:01.606Z,21.40
2022-07-30T20:28:55.229Z,21.30
2022-07-30T20:30:28.840Z,21.30
2022-07-30T20:32:02.489Z,21.30
2022-07-30T20:33:38.074Z,21.30
2022-07-30T20:35:12.858Z,21.20
2022-07-30T20:36:46.263Z,21.20
2022-07-30T20:38:20.921Z,21.20
2022-07-30T20:39:56.723Z,21.20
2022-07-30T20:41:30.275Z,21.10
2022-07-30T20:43:05.690Z,21.10
2022-07-30T20:44:43.270Z,21.10
2022-07-30T20:46:23.526Z,21.10
2022-07-30T20:47:57.544Z,21.00
2022-07-30T20:49:35.263Z,21.00
2022-07-30T20:51:09.884Z,20.90
2022-07-30T20:52:46.376Z,20.90
2022-07-30T20:54:20.541Z,20.90
2022-07-30T20:55:55.586Z,20.90
2022-07-30T20:57:44.325Z,20.90
2022-07-30T20:59:23.894Z,20.80
2022-07-30T21:00:57.861Z,20.80
2022-07-30T21:02:32.094Z,20.80
2022-07-30T21:04:06.479Z,20.70
2022-07-30T21:05:44.203Z,20.70